createdAt,value
2022-11-28T00:03:58.818Z,8.20
2022-11-28T00:08:00.552Z,8.20
2022-11-28T00:12:02.311Z,8.10
2022-11-28T00:16:07.708Z,8.30
2022-11-28T00:20:09.715Z,8.10
2022-11-28T00:24:11.546Z,8.30
2022-11-28T00:28:13.361Z,8.30
2022-11-28T00:32:15.259Z,8.30
2022-11-28T00:36:17.513Z,8.30
2022-11-28T00:40:19.211Z,8.30
2022-11-28T00:44:20.894Z,8.10
2022-11-28T00:48:22.699Z,7.70
2022-11-28T00:52:24.385Z,8.00
2022-11-28T00:56:30.963Z,8.40
2022-11-28T01:00:33.153Z,8.20
2022-11-28T01:04:34.836Z,7.80
2022-11-28T01:08:37.648Z,7.80
2022-11-28T01:12:39.522Z,8.00
2022-11-28T01:16:41.290Z,7.90
2022-11-28T01:20:43.299Z,8.10
2022-11-28T01:24:45.084Z,8.00
2022-11-28T01:28:47.341Z,8.00
2022-11-28T01:32:49.050Z,8.20
2022-11-28T01:36:50.915Z,7.70
2022-11-28T01:40:53.607Z,7.50
2022-11-28T01:44:55.245Z,7.70
2022-11-28T01:49:08.995Z,7.90
2022-11-28T01:53:11.210Z,7.90
2022-11-28T01:57:17.880Z,8.20
2022-11-28T02:01:21.261Z,7.90
2022-11-28T02:05:23.413Z,8.30
2022-11-28T02:09:25.167Z,7.90
2022-11-28T02:14:02.330Z,7.50
2022-11-28T02:18:22.552Z,7.50
2022-11-28T02:22:34.520Z,7.40
2022-11-28T02:27:00.551Z,7.80
2022-11-28T02:31:24.439Z,7.80
2022-11-28T02:35:49.582Z,8.20
2022-11-28T02:40:09.853Z,8.20
2022-11-28T02:44:14.663Z,8.10
2022-11-28T02:48:32.152Z,8.20
2022-11-28T02:52:41.768Z,8.20
2022-11-28T02:56:51.602Z,8.30
2022-11-28T03:00:54.075Z,8.10
2022-11-28T03:05:07.808Z,8.40
2022-11-28T03:09:42.358Z,8.30
2022-11-28T03:13:52.791Z,8.30
2022-11-28T03:18:16.796Z,8.30
2022-11-28T03:22:21.505Z,8.40
2022-11-28T03:26:40.435Z,8.50
2022-11-28T03:31:08.340Z,8.50
2022-11-28T03:35:20.415Z,8.50
2022-11-28T03:39:27.907Z,8.60
2022-11-28T03:43:39.268Z,8.50
2022-11-28T03:47:46.054Z,8.40
2022-11-28T03:52:00.733Z,8.30
2022-11-28T03:56:33.815Z,8.20
2022-11-28T04:00:43.285Z,7.90
2022-11-28T04:05:08.533Z,7.60
2022-11-28T04:09:44.048Z,7.90
2022-11-28T04:13:58.118Z,7.80
2022-11-28T04:18:10.630Z,8.00
2022-11-28T04:22:24.339Z,8.00
2022-11-28T04:26:35.669Z,8.30
2022-11-28T04:30:38.912Z,8.20
2022-11-28T04:34:44.899Z,8.10
2022-11-28T04:38:56.356Z,7.90
2022-11-28T04:43:08.291Z,8.10
2022-11-28T04:47:11.598Z,8.40
2022-11-28T04:51:34.006Z,8.60
2022-11-28T04:55:42.103Z,8.30
2022-11-28T04:59:44.435Z,7.70
2022-11-28T05:03:46.551Z,8.10
2022-11-28T05:07:48.373Z,8.20
2022-11-28T05:11:50.111Z,8.20
2022-11-28T05:15:52.469Z,8.30
2022-11-28T05:19:54.142Z,8.40
2022-11-28T05:23:55.884Z,8.50
2022-11-28T05:27:57.617Z,8.70
2022-11-28T05:31:59.473Z,8.70
2022-11-28T05:36:12.913Z,8.80
2022-11-28T05:40:15.095Z,8.80
2022-11-28T05:44:16.782Z,8.70
2022-11-28T05:48:20.115Z,8.70
2022-11-28T05:52:21.774Z,9.10
2022-11-28T05:56:23.802Z,8.60
2022-11-28T06:00:25.558Z,8.30
2022-11-28T06:04:27.280Z,8.20
2022-11-28T06:08:28.928Z,8.40
2022-11-28T06:12:30.645Z,8.50
2022-11-28T06:16:33.084Z,8.70
2022-11-28T06:20:35.750Z,8.70
2022-11-28T06:24:37.465Z,8.70
2022-11-28T06:28:39.807Z,8.70
2022-11-28T06:32:41.499Z,8.60
2022-11-28T06:36:44.971Z,8.40
2022-11-28T06:40:46.611Z,8.50
2022-11-28T06:44:48.378Z,8.80
2022-11-28T06:48:52.706Z,9.00
2022-11-28T06:52:55.204Z,9.00
2022-11-28T06:56:56.882Z,8.90
2022-11-28T07:01:05.094Z,8.70
2022-11-28T07:05:07.488Z,8.80
2022-11-28T07:09:09.142Z,8.80
2022-11-28T07:13:10.838Z,8.80
2022-11-28T07:17:12.590Z,8.90
2022-11-28T07:21:15.662Z,9.40
2022-11-28T07:25:17.563Z,9.10
2022-11-28T07:29:19.515Z,8.80
2022-11-28T07:33:21.170Z,8.70
2022-11-28T07:37:22.880Z,9.00
2022-11-28T07:41:27.019Z,9.00
2022-11-28T07:45:41.936Z,8.60
2022-11-28T07:49:50.663Z,8.50
2022-11-28T07:53:52.562Z,9.00
2022-11-28T07:57:54.289Z,9.20
2022-11-28T08:01:56.107Z,9.60
2022-11-28T08:06:02.968Z,9.20
2022-11-28T08:10:06.992Z,9.40
2022-11-28T08:14:09.422Z,8.80
2022-11-28T08:18:11.122Z,8.60
2022-11-28T08:22:12.784Z,8.50
2022-11-28T08:26:16.944Z,8.70
2022-11-28T08:30:18.699Z,8.90
2022-11-28T08:34:20.433Z,8.70
2022-11-28T08:38:22.408Z,8.80
2022-11-28T08:42:24.860Z,8.90
2022-11-28T08:46:26.688Z,8.50
2022-11-28T08:50:28.445Z,8.30
2022-11-28T08:54:30.093Z,8.40
2022-11-28T08:58:31.861Z,8.50
2022-11-28T09:02:33.536Z,8.60
2022-11-28T09:06:36.683Z,9.10
2022-11-28T09:10:47.396Z,9.20
2022-11-28T09:14:49.163Z,9.40
2022-11-28T09:18:51.155Z,9.80
2022-11-28T09:22:52.860Z,9.40
2022-11-28T09:26:54.602Z,9.70
2022-11-28T09:31:04.761Z,9.50
2022-11-28T09:35:06.812Z,9.00
2022-11-28T09:39:08.478Z,9.20
2022-11-28T09:43:16.629Z,9.20
2022-11-28T09:47:28.728Z,9.40
2022-11-28T09:52:00.877Z,9.70
2022-11-28T09:56:10.825Z,9.80
2022-11-28T10:00:36.262Z,9.90
2022-11-28T10:05:05.135Z,10.00
2022-11-28T10:09:25.599Z,10.20
2022-11-28T10:14:09.175Z,10.10
2022-11-28T10:18:13.624Z,10.20
2022-11-28T10:22:20.364Z,10.00
2022-11-28T10:26:36.076Z,10.10
2022-11-28T10:30:42.976Z,10.20
2022-11-28T10:35:06.358Z,10.40
2022-11-28T10:39:15.071Z,10.40
2022-11-28T10:43:25.023Z,10.50
2022-11-28T10:47:42.445Z,10.90
2022-11-28T10:51:59.223Z,10.70
2022-11-28T10:56:32.891Z,10.80
2022-11-28T11:00:36.377Z,10.70
2022-11-28T11:04:38.742Z,10.80
2022-11-28T11:08:41.401Z,10.90
2022-11-28T11:12:44.519Z,11.20
2022-11-28T11:17:04.503Z,10.80
2022-11-28T11:21:21.317Z,10.40
2022-11-28T11:25:28.258Z,10.50
2022-11-28T11:29:35.590Z,10.40
2022-11-28T11:33:38.249Z,10.50
2022-11-28T11:37:40.006Z,10.50
2022-11-28T11:41:44.616Z,10.80
2022-11-28T11:45:51.269Z,10.90
2022-11-28T11:50:04.025Z,10.90
2022-11-28T11:54:19.143Z,11.20
2022-11-28T11:58:26.759Z,11.10
2022-11-28T12:02:36.771Z,11.40
2022-11-28T12:06:45.316Z,11.30
2022-11-28T12:10:53.523Z,11.10
2022-11-28T12:14:55.759Z,11.20
2022-11-28T12:19:08.104Z,11.40
2022-11-28T12:23:47.758Z,11.30
2022-11-28T12:27:52.658Z,11.40
2022-11-28T12:32:15.840Z,11.30
2022-11-28T12:36:35.030Z,11.40
2022-11-28T12:41:11.772Z,11.50
2022-11-28T12:45:20.276Z,11.40
2022-11-28T12:49:30.452Z,11.20
2022-11-28T12:53:46.028Z,10.90
2022-11-28T12:58:22.693Z,10.80
2022-11-28T13:02:32.351Z,10.80
2022-11-28T13:06:46.652Z,11.00
2022-11-28T13:10:59.548Z,11.40
2022-11-28T13:15:12.074Z,11.60
2022-11-28T13:19:25.836Z,11.80
2022-11-28T13:23:31.725Z,11.60
2022-11-28T13:27:53.375Z,12.00
2022-11-28T13:32:18.157Z,11.20
2022-11-28T13:41:59.532Z,11.00
2022-11-28T13:45:47.311Z,11.20
2022-11-28T13:49:49.291Z,11.10
2022-11-28T13:54:20.268Z,11.00
2022-11-28T13:58:26.307Z,11.20
2022-11-28T14:03:00.012Z,11.30
2022-11-28T14:07:06.550Z,11.40
2022-11-28T14:11:28.002Z,11.40
2022-11-28T14:15:44.794Z,11.50
2022-11-28T14:20:24.480Z,11.60
2022-11-28T14:24:49.484Z,11.20
2022-11-28T14:28:51.878Z,11.30
2022-11-28T14:33:01.395Z,11.30
2022-11-28T14:37:21.430Z,11.40
2022-11-28T14:41:23.195Z,11.20
2022-11-28T14:45:43.697Z,11.30
2022-11-28T14:49:45.620Z,11.30
2022-11-28T14:53:49.143Z,11.30
2022-11-28T14:58:01.633Z,11.40
2022-11-28T15:02:19.006Z,11.10
2022-11-28T15:06:25.249Z,11.10
2022-11-28T15:10:39.035Z,11.50
2022-11-28T15:14:41.061Z,11.20
2022-11-28T15:18:50.823Z,11.50
2022-11-28T15:22:52.632Z,11.10
2022-11-28T15:26:59.134Z,11.20
2022-11-28T15:31:03.929Z,11.00
2022-11-28T15:35:12.242Z,11.10
2022-11-28T15:39:25.972Z,11.00
2022-11-28T15:43:31.669Z,11.10
2022-11-28T15:47:33.771Z,11.20
2022-11-28T15:51:35.724Z,11.00
2022-11-28T15:55:37.683Z,11.40
2022-11-28T15:59:39.382Z,11.10
2022-11-28T16:04:00.013Z,11.30
2022-11-28T16:08:02.076Z,11.10
2022-11-28T16:12:12.081Z,11.30
2022-11-28T16:16:21.901Z,11.00
2022-11-28T16:20:37.798Z,11.00
2022-11-28T16:24:47.092Z,11.10
2022-11-28T16:29:01.451Z,11.20
2022-11-28T16:33:24.785Z,11.10
2022-11-28T16:37:28.406Z,11.40
2022-11-28T16:41:32.797Z,11.10
2022-11-28T16:45:34.678Z,11.20
2022-11-28T16:49:39.774Z,11.10
2022-11-28T16:53:49.768Z,11.40
2022-11-28T16:57:59.759Z,11.00
2022-11-28T17:02:01.571Z,11.00
2022-11-28T17:06:03.327Z,11.20
2022-11-28T17:10:05.629Z,11.00
2022-11-28T17:14:13.107Z,11.10
2022-11-28T17:18:15.260Z,11.10
2022-11-28T17:22:20.991Z,11.40
2022-11-28T17:26:22.662Z,11.40
2022-11-28T17:30:24.342Z,11.10
2022-11-28T17:34:31.842Z,10.90
2022-11-28T17:38:33.930Z,10.90
2022-11-28T17:42:35.646Z,11.20
2022-11-28T17:46:37.428Z,11.10
2022-11-28T17:50:48.957Z,11.00
2022-11-28T17:54:50.639Z,10.90
2022-11-28T17:58:52.750Z,10.80
2022-11-28T18:02:54.570Z,10.80
2022-11-28T18:06:56.304Z,11.10
2022-11-28T18:11:10.011Z,11.20
2022-11-28T18:15:11.818Z,11.00
2022-11-28T18:19:13.547Z,11.00
2022-11-28T18:23:15.311Z,11.00
2022-11-28T18:27:23.075Z,11.30
2022-11-28T18:31:27.042Z,11.20
2022-11-28T18:35:28.873Z,10.80
2022-11-28T18:39:33.434Z,10.80
2022-11-28T18:43:38.075Z,10.90
2022-11-28T18:47:39.815Z,10.90
2022-11-28T18:51:41.713Z,11.10
2022-11-28T18:55:43.383Z,10.80
2022-11-28T18:59:52.752Z,11.00
2022-11-28T19:03:59.809Z,10.80
2022-11-28T19:08:01.841Z,11.00
2022-11-28T19:12:04.078Z,10.60
2022-11-28T19:16:18.419Z,10.70
2022-11-28T19:20:20.198Z,10.80
2022-11-28T19:24:22.254Z,10.90
2022-11-28T19:28:24.048Z,10.80
2022-11-28T19:32:25.748Z,10.70
2022-11-28T19:36:28.262Z,10.90
2022-11-28T19:40:30.012Z,11.00
2022-11-28T19:44:31.699Z,10.40
2022-11-28T19:48:35.414Z,10.60
2022-11-28T19:52:37.161Z,10.70
2022-11-28T19:56:39.382Z,10.70
2022-11-28T20:00:42.140Z,11.00
2022-11-28T20:04:43.822Z,11.00
2022-11-28T20:08:46.485Z,10.80
2022-11-28T20:12:48.715Z,10.90
2022-11-28T20:16:50.581Z,10.90
2022-11-28T20:20:52.283Z,10.90
2022-11-28T20:24:53.978Z,11.00
2022-11-28T20:28:58.603Z,10.80
2022-11-28T20:33:00.491Z,10.80
2022-11-28T20:37:02.377Z,10.90
2022-11-28T20:41:06.088Z,11.10
2022-11-28T20:45:08.104Z,10.70
2022-11-28T20:49:10.379Z,10.90
2022-11-28T20:53:12.205Z,10.90
2022-11-28T20:57:21.453Z,11.00
2022-11-28T21:01:26.272Z,10.90
2022-11-28T21:05:27.979Z,11.00
2022-11-28T21:09:29.777Z,10.80
2022-11-28T21:13:32.376Z,11.10
2022-11-28T21:17:34.173Z,10.60
2022-11-28T21:21:38.289Z,10.70
2022-11-28T21:25:42.017Z,10.80
2022-11-28T21:29:44.212Z,11.10
2022-11-28T21:33:54.577Z,10.90
2022-11-28T21:37:57.642Z,10.90
2022-11-28T21:42:01.245Z,10.90
2022-11-28T21:46:04.991Z,11.00
2022-11-28T21:50:07.401Z,11.10
2022-11-28T21:54:11.475Z,10.90
2022-11-28T21:58:13.344Z,11.40
2022-11-28T22:02:15.897Z,11.30
2022-11-28T22:06:23.702Z,11.40
2022-11-28T22:10:31.545Z,11.20
2022-11-28T22:14:36.800Z,11.00
2022-11-28T22:18:38.885Z,10.70
2022-11-28T22:22:40.609Z,10.40
2022-11-28T22:26:42.300Z,10.50
2022-11-28T22:30:43.988Z,10.60
2022-11-28T22:34:46.149Z,10.80
2022-11-28T22:38:49.734Z,10.70
2022-11-28T22:42:54.803Z,10.90
2022-11-28T22:46:56.493Z,10.90
2022-11-28T22:50:58.309Z,10.80
2022-11-28T22:55:03.523Z,11.20
2022-11-28T22:59:05.544Z,11.00
2022-11-28T23:03:08.660Z,11.00
2022-11-28T23:07:10.731Z,10.90
2022-11-28T23:11:15.725Z,10.90
2022-11-28T23:15:17.570Z,11.10
2022-11-28T23:19:19.508Z,10.90
2022-11-28T23:23:21.275Z,10.90
2022-11-28T23:27:23.239Z,11.00
2022-11-28T23:31:27.664Z,11.00
2022-11-28T23:35:29.388Z,11.10
2022-11-28T23:39:31.064Z,11.00
2022-11-28T23:43:32.987Z,11.10
2022-11-28T23:47:35.071Z,11.40
2022-11-28T23:51:37.305Z,11.30
2022-11-28T23:55:39.084Z,11.00
2022-11-28T23:59:40.771Z,11.10
